sensor_id;sensor_type;location;lat;lon;timestamp;P1;durP1;ratioP1;P2;durP2;ratioP2
56830;SDS011;42713;42.676;23.352;2024-03-17T00:01:32;21.55;;;11.00;;
56830;SDS011;42713;42.676;23.352;2024-03-17T00:03:57;19.95;;;9.35;;
56830;SDS011;42713;42.676;23.352;2024-03-17T00:06:24;22.27;;;10.73;;
56830;SDS011;42713;42.676;23.352;2024-03-17T00:08:49;19.38;;;10.30;;
56830;SDS011;42713;42.676;23.352;2024-03-17T00:11:15;21.38;;;11.25;;
56830;SDS011;42713;42.676;23.352;2024-03-17T00:13:41;25.95;;;11.65;;
56830;SDS011;42713;42.676;23.352;2024-03-17T00:16:06;25.33;;;12.65;;
56830;SDS011;42713;42.676;23.352;2024-03-17T00:18:32;22.92;;;12.57;;
56830;SDS011;42713;42.676;23.352;2024-03-17T00:20:57;26.20;;;13.20;;
56830;SDS011;42713;42.676;23.352;2024-03-17T00:23:24;26.20;;;12.13;;
56830;SDS011;42713;42.676;23.352;2024-03-17T00:25:49;21.90;;;11.30;;
56830;SDS011;42713;42.676;23.352;2024-03-17T00:28:16;25.13;;;12.63;;
56830;SDS011;42713;42.676;23.352;2024-03-17T00:30:41;33.75;;;14.60;;
56830;SDS011;42713;42.676;23.352;2024-03-17T00:33:07;27.85;;;14.55;;
56830;SDS011;42713;42.676;23.352;2024-03-17T00:35:32;25.63;;;12.85;;
56830;SDS011;42713;42.676;23.352;2024-03-17T00:37:58;24.42;;;12.27;;
56830;SDS011;42713;42.676;23.352;2024-03-17T00:40:25;20.95;;;12.35;;
56830;SDS011;42713;42.676;23.352;2024-03-17T00:42:50;21.92;;;11.65;;
56830;SDS011;42713;42.676;23.352;2024-03-17T00:45:16;25.85;;;12.98;;
56830;SDS011;42713;42.676;23.352;2024-03-17T00:47:42;22.98;;;13.65;;
56830;SDS011;42713;42.676;23.352;2024-03-17T00:50:08;25.20;;;12.75;;
56830;SDS011;42713;42.676;23.352;2024-03-17T00:52:36;28.77;;;16.63;;
56830;SDS011;42713;42.676;23.352;2024-03-17T00:55:20;35.45;;;16.42;;
56830;SDS011;42713;42.676;23.352;2024-03-17T00:57:46;28.70;;;16.92;;
56830;SDS011;42713;42.676;23.352;2024-03-17T01:00:12;32.45;;;16.73;;
56830;SDS011;42713;42.676;23.352;2024-03-17T01:02:39;31.33;;;17.00;;
56830;SDS011;42713;42.676;23.352;2024-03-17T01:05:05;32.00;;;17.90;;
56830;SDS011;42713;42.676;23.352;2024-03-17T01:07:34;39.33;;;17.35;;
56830;SDS011;42713;42.676;23.352;2024-03-17T01:10:18;33.33;;;16.45;;
56830;SDS011;42713;42.676;23.352;2024-03-17T01:12:47;39.03;;;17.92;;
56830;SDS011;42713;42.676;23.352;2024-03-17T01:15:12;32.65;;;17.45;;
56830;SDS011;42713;42.676;23.352;2024-03-17T01:17:38;30.20;;;17.77;;
56830;SDS011;42713;42.676;23.352;2024-03-17T01:20:03;34.60;;;18.92;;
56830;SDS011;42713;42.676;23.352;2024-03-17T01:22:29;31.23;;;16.40;;
56830;SDS011;42713;42.676;23.352;2024-03-17T01:24:55;29.30;;;16.77;;
56830;SDS011;42713;42.676;23.352;2024-03-17T01:27:20;31.95;;;16.38;;
56830;SDS011;42713;42.676;23.352;2024-03-17T01:29:45;34.47;;;17.10;;
56830;SDS011;42713;42.676;23.352;2024-03-17T01:32:11;34.92;;;17.80;;
56830;SDS011;42713;42.676;23.352;2024-03-17T01:34:37;33.38;;;18.23;;
56830;SDS011;42713;42.676;23.352;2024-03-17T01:37:03;31.48;;;17.55;;
56830;SDS011;42713;42.676;23.352;2024-03-17T01:39:30;34.90;;;18.70;;
56830;SDS011;42713;42.676;23.352;2024-03-17T01:41:57;36.10;;;18.45;;
56830;SDS011;42713;42.676;23.352;2024-03-17T01:44:27;33.13;;;17.38;;
56830;SDS011;42713;42.676;23.352;2024-03-17T01:46:54;32.30;;;17.35;;
56830;SDS011;42713;42.676;23.352;2024-03-17T01:49:21;35.38;;;18.58;;
56830;SDS011;42713;42.676;23.352;2024-03-17T01:51:47;33.90;;;17.90;;
56830;SDS011;42713;42.676;23.352;2024-03-17T01:54:14;31.90;;;18.30;;
56830;SDS011;42713;42.676;23.352;2024-03-17T01:56:40;35.75;;;18.85;;
56830;SDS011;42713;42.676;23.352;2024-03-17T01:59:07;35.75;;;18.90;;
56830;SDS011;42713;42.676;23.352;2024-03-17T02:01:34;32.63;;;18.05;;
56830;SDS011;42713;42.676;23.352;2024-03-17T02:04:00;32.88;;;18.75;;
56830;SDS011;42713;42.676;23.352;2024-03-17T02:06:27;29.83;;;17.10;;
56830;SDS011;42713;42.676;23.352;2024-03-17T02:08:53;29.95;;;17.42;;
56830;SDS011;42713;42.676;23.352;2024-03-17T02:11:53;32.97;;;17.88;;
56830;SDS011;42713;42.676;23.352;2024-03-17T02:14:11;28.92;;;17.65;;
56830;SDS011;42713;42.676;23.352;2024-03-17T02:16:39;28.95;;;17.08;;
56830;SDS011;42713;42.676;23.352;2024-03-17T02:19:05;32.88;;;17.05;;
56830;SDS011;42713;42.676;23.352;2024-03-17T02:21:31;27.48;;;16.98;;
56830;SDS011;42713;42.676;23.352;2024-03-17T02:23:56;32.05;;;18.27;;
56830;SDS011;42713;42.676;23.352;2024-03-17T02:26:23;27.63;;;16.77;;
56830;SDS011;42713;42.676;23.352;2024-03-17T02:28:50;31.15;;;17.80;;
56830;SDS011;42713;42.676;23.352;2024-03-17T02:31:16;29.45;;;17.55;;
56830;SDS011;42713;42.676;23.352;2024-03-17T02:33:42;31.00;;;17.67;;
56830;SDS011;42713;42.676;23.352;2024-03-17T02:36:09;30.40;;;17.40;;
56830;SDS011;42713;42.676;23.352;2024-03-17T02:38:37;31.95;;;17.08;;
56830;SDS011;42713;42.676;23.352;2024-03-17T02:41:23;33.60;;;17.05;;
56830;SDS011;42713;42.676;23.352;2024-03-17T02:43:48;29.60;;;17.23;;
56830;SDS011;42713;42.676;23.352;2024-03-17T02:46:15;30.80;;;17.33;;
56830;SDS011;42713;42.676;23.352;2024-03-17T02:48:43;30.75;;;16.00;;
56830;SDS011;42713;42.676;23.352;2024-03-17T02:51:13;29.85;;;16.95;;
56830;SDS011;42713;42.676;23.352;2024-03-17T02:53:41;32.83;;;18.60;;
56830;SDS011;42713;42.676;23.352;2024-03-17T02:56:07;30.27;;;16.95;;
56830;SDS011;42713;42.676;23.352;2024-03-17T02:58:37;31.48;;;17.33;;
56830;SDS011;42713;42.676;23.352;2024-03-17T03:01:04;28.08;;;16.10;;
56830;SDS011;42713;42.676;23.352;2024-03-17T03:03:33;28.63;;;16.27;;
56830;SDS011;42713;42.676;23.352;2024-03-17T03:05:59;26.77;;;15.93;;
56830;SDS011;42713;42.676;23.352;2024-03-17T03:08:32;28.08;;;16.45;;
56830;SDS011;42713;42.676;23.352;2024-03-17T03:10:59;27.90;;;15.50;;
56830;SDS011;42713;42.676;23.352;2024-03-17T03:13:24;28.77;;;16.75;;
56830;SDS011;42713;42.676;23.352;2024-03-17T03:15:50;29.05;;;16.25;;
56830;SDS011;42713;42.676;23.352;2024-03-17T03:18:16;30.70;;;16.20;;
56830;SDS011;42713;42.676;23.352;2024-03-17T03:20:41;28.67;;;15.38;;
56830;SDS011;42713;42.676;23.352;2024-03-17T03:23:07;29.17;;;15.57;;
56830;SDS011;42713;42.676;23.352;2024-03-17T03:25:32;27.80;;;17.02;;
56830;SDS011;42713;42.676;23.352;2024-03-17T03:27:58;28.88;;;15.57;;
56830;SDS011;42713;42.676;23.352;2024-03-17T03:30:24;27.40;;;16.55;;
56830;SDS011;42713;42.676;23.352;2024-03-17T03:32:49;27.83;;;16.55;;
56830;SDS011;42713;42.676;23.352;2024-03-17T03:35:15;29.75;;;15.70;;
56830;SDS011;42713;42.676;23.352;2024-03-17T03:37:41;28.65;;;15.88;;
56830;SDS011;42713;42.676;23.352;2024-03-17T03:40:10;28.88;;;16.08;;
56830;SDS011;42713;42.676;23.352;2024-03-17T03:42:46;32.05;;;16.08;;
56830;SDS011;42713;42.676;23.352;2024-03-17T03:45:12;30.10;;;16.30;;
56830;SDS011;42713;42.676;23.352;2024-03-17T03:47:41;28.10;;;16.63;;
56830;SDS011;42713;42.676;23.352;2024-03-17T03:50:08;30.55;;;16.83;;
56830;SDS011;42713;42.676;23.352;2024-03-17T03:52:38;28.42;;;17.25;;
56830;SDS011;42713;42.676;23.352;2024-03-17T03:55:06;32.47;;;17.77;;
56830;SDS011;42713;42.676;23.352;2024-03-17T03:57:35;28.25;;;17.35;;
56830;SDS011;42713;42.676;23.352;2024-03-17T04:00:03;26.95;;;16.10;;
56830;SDS011;42713;42.676;23.352;2024-03-17T04:02:39;30.30;;;16.65;;
56830;SDS011;42713;42.676;23.352;2024-03-17T04:05:05;29.60;;;16.73;;
56830;SDS011;42713;42.676;23.352;2024-03-17T04:07:31;29.38;;;16.52;;
56830;SDS011;42713;42.676;23.352;2024-03-17T04:10:16;30.77;;;16.85;;
56830;SDS011;42713;42.676;23.352;2024-03-17T04:12:44;27.00;;;16.17;;
56830;SDS011;42713;42.676;23.352;2024-03-17T04:15:09;30.58;;;16.83;;
56830;SDS011;42713;42.676;23.352;2024-03-17T04:17:35;33.60;;;17.13;;
56830;SDS011;42713;42.676;23.352;2024-03-17T04:20:19;30.08;;;17.13;;
56830;SDS011;42713;42.676;23.352;2024-03-17T04:22:46;30.55;;;16.75;;
56830;SDS011;42713;42.676;23.352;2024-03-17T04:25:13;30.98;;;18.30;;
56830;SDS011;42713;42.676;23.352;2024-03-17T04:27:40;33.38;;;17.13;;
56830;SDS011;42713;42.676;23.352;2024-03-17T04:30:06;32.72;;;17.70;;
56830;SDS011;42713;42.676;23.352;2024-03-17T04:32:32;34.05;;;17.75;;
56830;SDS011;42713;42.676;23.352;2024-03-17T04:34:58;28.25;;;16.73;;
56830;SDS011;42713;42.676;23.352;2024-03-17T04:37:24;30.90;;;18.25;;
56830;SDS011;42713;42.676;23.352;2024-03-17T04:39:50;31.40;;;16.30;;
56830;SDS011;42713;42.676;23.352;2024-03-17T04:42:16;34.13;;;18.73;;
56830;SDS011;42713;42.676;23.352;2024-03-17T04:44:45;33.08;;;18.17;;
56830;SDS011;42713;42.676;23.352;2024-03-17T04:47:11;32.22;;;16.45;;
56830;SDS011;42713;42.676;23.352;2024-03-17T04:49:38;30.88;;;17.67;;
56830;SDS011;42713;42.676;23.352;2024-03-17T04:52:05;29.33;;;16.98;;
56830;SDS011;42713;42.676;23.352;2024-03-17T04:54:32;31.08;;;17.20;;
56830;SDS011;42713;42.676;23.352;2024-03-17T04:56:58;28.63;;;17.25;;
56830;SDS011;42713;42.676;23.352;2024-03-17T04:59:24;30.02;;;16.33;;
56830;SDS011;42713;42.676;23.352;2024-03-17T05:01:50;28.13;;;17.98;;
56830;SDS011;42713;42.676;23.352;2024-03-17T05:04:16;34.17;;;18.45;;
56830;SDS011;42713;42.676;23.352;2024-03-17T05:06:42;33.33;;;18.25;;
56830;SDS011;42713;42.676;23.352;2024-03-17T05:09:13;30.95;;;17.02;;
56830;SDS011;42713;42.676;23.352;2024-03-17T05:11:39;33.92;;;18.30;;
56830;SDS011;42713;42.676;23.352;2024-03-17T05:14:07;30.55;;;17.58;;
56830;SDS011;42713;42.676;23.352;2024-03-17T05:16:33;35.30;;;18.33;;
56830;SDS011;42713;42.676;23.352;2024-03-17T05:18:59;34.22;;;16.88;;
56830;SDS011;42713;42.676;23.352;2024-03-17T05:21:25;33.75;;;18.83;;
56830;SDS011;42713;42.676;23.352;2024-03-17T05:23:51;31.98;;;17.02;;
56830;SDS011;42713;42.676;23.352;2024-03-17T05:26:17;31.90;;;18.75;;
56830;SDS011;42713;42.676;23.352;2024-03-17T05:28:43;35.95;;;21.25;;
56830;SDS011;42713;42.676;23.352;2024-03-17T05:31:09;34.33;;;20.05;;
56830;SDS011;42713;42.676;23.352;2024-03-17T05:33:35;38.78;;;19.17;;
56830;SDS011;42713;42.676;23.352;2024-03-17T05:36:01;32.45;;;17.77;;
56830;SDS011;42713;42.676;23.352;2024-03-17T05:38:30;36.50;;;18.92;;
56830;SDS011;42713;42.676;23.352;2024-03-17T05:40:56;35.92;;;19.65;;
56830;SDS011;42713;42.676;23.352;2024-03-17T05:43:23;34.60;;;19.20;;
56830;SDS011;42713;42.676;23.352;2024-03-17T05:45:59;35.30;;;18.98;;
56830;SDS011;42713;42.676;23.352;2024-03-17T05:48:29;33.40;;;19.05;;
56830;SDS011;42713;42.676;23.352;2024-03-17T05:50:55;30.98;;;17.60;;
56830;SDS011;42713;42.676;23.352;2024-03-17T05:53:23;32.55;;;18.02;;
56830;SDS011;42713;42.676;23.352;2024-03-17T05:55:49;32.55;;;18.05;;
56830;SDS011;42713;42.676;23.352;2024-03-17T05:58:15;33.80;;;17.98;;
56830;SDS011;42713;42.676;23.352;2024-03-17T06:00:41;38.05;;;17.45;;
56830;SDS011;42713;42.676;23.352;2024-03-17T06:03:06;31.80;;;18.65;;
56830;SDS011;42713;42.676;23.352;2024-03-17T06:05:32;36.90;;;19.25;;
56830;SDS011;42713;42.676;23.352;2024-03-17T06:08:18;32.00;;;17.85;;
56830;SDS011;42713;42.676;23.352;2024-03-17T06:10:44;37.33;;;19.45;;
56830;SDS011;42713;42.676;23.352;2024-03-17T06:13:11;36.90;;;18.00;;
56830;SDS011;42713;42.676;23.352;2024-03-17T06:15:41;33.22;;;18.05;;
56830;SDS011;42713;42.676;23.352;2024-03-17T06:18:26;33.60;;;20.25;;
56830;SDS011;42713;42.676;23.352;2024-03-17T06:20:52;41.58;;;19.08;;
56830;SDS011;42713;42.676;23.352;2024-03-17T06:23:18;39.97;;;19.63;;
56830;SDS011;42713;42.676;23.352;2024-03-17T06:25:45;34.03;;;19.52;;
56830;SDS011;42713;42.676;23.352;2024-03-17T06:28:15;33.30;;;18.80;;
56830;SDS011;42713;42.676;23.352;2024-03-17T06:30:45;40.65;;;18.90;;
56830;SDS011;42713;42.676;23.352;2024-03-17T06:33:19;31.90;;;18.70;;
56830;SDS011;42713;42.676;23.352;2024-03-17T06:35:46;29.55;;;16.92;;
56830;SDS011;42713;42.676;23.352;2024-03-17T06:38:12;33.60;;;17.23;;
56830;SDS011;42713;42.676;23.352;2024-03-17T06:40:38;30.50;;;18.17;;
56830;SDS011;42713;42.676;23.352;2024-03-17T06:43:04;31.20;;;17.35;;
56830;SDS011;42713;42.676;23.352;2024-03-17T06:45:30;33.70;;;18.42;;
56830;SDS011;42713;42.676;23.352;2024-03-17T06:47:56;33.60;;;18.30;;
56830;SDS011;42713;42.676;23.352;2024-03-17T06:50:26;31.40;;;17.45;;
56830;SDS011;42713;42.676;23.352;2024-03-17T06:52:54;30.08;;;15.82;;
56830;SDS011;42713;42.676;23.352;2024-03-17T06:55:23;27.60;;;16.08;;
56830;SDS011;42713;42.676;23.352;2024-03-17T06:57:51;27.38;;;15.93;;
56830;SDS011;42713;42.676;23.352;2024-03-17T07:00:16;27.58;;;15.00;;
56830;SDS011;42713;42.676;23.352;2024-03-17T07:02:43;29.35;;;15.45;;
56830;SDS011;42713;42.676;23.352;2024-03-17T07:05:12;31.02;;;14.57;;
56830;SDS011;42713;42.676;23.352;2024-03-17T07:07:42;29.13;;;14.73;;
56830;SDS011;42713;42.676;23.352;2024-03-17T07:10:08;23.75;;;14.60;;
56830;SDS011;42713;42.676;23.352;2024-03-17T07:12:36;25.33;;;15.10;;
56830;SDS011;42713;42.676;23.352;2024-03-17T07:15:04;26.42;;;14.88;;
56830;SDS011;42713;42.676;23.352;2024-03-17T07:17:30;30.38;;;15.85;;
56830;SDS011;42713;42.676;23.352;2024-03-17T07:19:57;27.38;;;15.23;;
56830;SDS011;42713;42.676;23.352;2024-03-17T07:22:22;32.95;;;15.52;;
56830;SDS011;42713;42.676;23.352;2024-03-17T07:24:51;35.97;;;18.20;;
56830;SDS011;42713;42.676;23.352;2024-03-17T07:27:21;28.05;;;16.20;;
56830;SDS011;42713;42.676;23.352;2024-03-17T07:29:46;27.55;;;15.32;;
56830;SDS011;42713;42.676;23.352;2024-03-17T07:32:12;26.20;;;14.85;;
56830;SDS011;42713;42.676;23.352;2024-03-17T07:34:37;23.67;;;13.55;;
56830;SDS011;42713;42.676;23.352;2024-03-17T07:37:03;22.63;;;13.50;;
56830;SDS011;42713;42.676;23.352;2024-03-17T07:39:29;23.70;;;13.95;;
56830;SDS011;42713;42.676;23.352;2024-03-17T07:41:58;25.63;;;13.65;;
56830;SDS011;42713;42.676;23.352;2024-03-17T07:44:24;30.67;;;13.50;;
56830;SDS011;42713;42.676;23.352;2024-03-17T07:46:50;25.85;;;13.40;;
56830;SDS011;42713;42.676;23.352;2024-03-17T07:49:16;22.92;;;12.52;;
56830;SDS011;42713;42.676;23.352;2024-03-17T07:51:41;24.23;;;12.90;;
56830;SDS011;42713;42.676;23.352;2024-03-17T07:54:09;24.35;;;12.10;;
56830;SDS011;42713;42.676;23.352;2024-03-17T07:56:34;21.85;;;12.02;;
56830;SDS011;42713;42.676;23.352;2024-03-17T07:58:59;22.83;;;11.98;;
56830;SDS011;42713;42.676;23.352;2024-03-17T08:01:25;25.95;;;11.98;;
56830;SDS011;42713;42.676;23.352;2024-03-17T08:03:50;20.33;;;11.30;;
56830;SDS011;42713;42.676;23.352;2024-03-17T08:06:20;23.25;;;12.10;;
56830;SDS011;42713;42.676;23.352;2024-03-17T08:08:46;20.02;;;11.35;;
56830;SDS011;42713;42.676;23.352;2024-03-17T08:11:12;21.02;;;11.02;;
56830;SDS011;42713;42.676;23.352;2024-03-17T08:13:38;18.75;;;10.90;;
56830;SDS011;42713;42.676;23.352;2024-03-17T08:27:28;18.98;;;10.73;;
56830;SDS011;42713;42.676;23.352;2024-03-17T08:30:09;21.90;;;9.88;;
56830;SDS011;42713;42.676;23.352;2024-03-17T08:32:46;20.73;;;10.52;;
56830;SDS011;42713;42.676;23.352;2024-03-17T09:02:22;19.40;;;9.50;;
56830;SDS011;42713;42.676;23.352;2024-03-17T09:19:04;17.45;;;9.68;;
56830;SDS011;42713;42.676;23.352;2024-03-17T09:21:53;19.58;;;10.20;;
56830;SDS011;42713;42.676;23.352;2024-03-17T10:38:05;9.93;;;4.57;;
56830;SDS011;42713;42.676;23.352;2024-03-17T10:52:50;5.10;;;2.10;;
56830;SDS011;42713;42.676;23.352;2024-03-17T10:55:25;6.07;;;2.22;;
56830;SDS011;42713;42.676;23.352;2024-03-17T10:58:23;7.85;;;2.30;;
56830;SDS011;42713;42.676;23.352;2024-03-17T11:00:56;6.45;;;2.60;;
56830;SDS011;42713;42.676;23.352;2024-03-17T11:03:22;7.95;;;3.15;;
56830;SDS011;42713;42.676;23.352;2024-03-17T11:14:34;8.82;;;3.42;;
56830;SDS011;42713;42.676;23.352;2024-03-17T11:23:56;7.10;;;3.17;;
56830;SDS011;42713;42.676;23.352;2024-03-17T11:26:29;8.88;;;3.60;;
56830;SDS011;42713;42.676;23.352;2024-03-17T11:29:56;8.30;;;3.60;;
56830;SDS011;42713;42.676;23.352;2024-03-17T11:39:51;9.20;;;4.25;;
56830;SDS011;42713;42.676;23.352;2024-03-17T11:55:26;9.85;;;3.88;;
56830;SDS011;42713;42.676;23.352;2024-03-17T11:58:03;7.95;;;3.65;;
56830;SDS011;42713;42.676;23.352;2024-03-17T12:00:39;7.38;;;3.25;;
56830;SDS011;42713;42.676;23.352;2024-03-17T12:05:56;8.35;;;3.22;;
56830;SDS011;42713;42.676;23.352;2024-03-17T12:17:30;9.57;;;3.30;;
56830;SDS011;42713;42.676;23.352;2024-03-17T12:50:47;9.15;;;4.28;;
56830;SDS011;42713;42.676;23.352;2024-03-17T12:53:46;8.65;;;4.13;;
56830;SDS011;42713;42.676;23.352;2024-03-17T14:05:26;14.98;;;6.32;;
56830;SDS011;42713;42.676;23.352;2024-03-17T14:27:51;14.38;;;6.38;;
56830;SDS011;42713;42.676;23.352;2024-03-17T14:32:32;12.82;;;5.53;;
56830;SDS011;42713;42.676;23.352;2024-03-17T14:58:14;14.02;;;5.65;;
56830;SDS011;42713;42.676;23.352;2024-03-17T15:00:46;12.23;;;5.55;;
56830;SDS011;42713;42.676;23.352;2024-03-17T15:03:12;13.15;;;6.00;;
56830;SDS011;42713;42.676;23.352;2024-03-17T15:15:49;11.43;;;6.93;;
56830;SDS011;42713;42.676;23.352;2024-03-17T15:18:36;14.18;;;6.90;;
56830;SDS011;42713;42.676;23.352;2024-03-17T16:11:39;13.90;;;6.53;;
56830;SDS011;42713;42.676;23.352;2024-03-17T16:14:05;13.50;;;7.28;;
56830;SDS011;42713;42.676;23.352;2024-03-17T16:16:34;14.45;;;7.93;;
56830;SDS011;42713;42.676;23.352;2024-03-17T16:24:21;16.83;;;8.70;;
56830;SDS011;42713;42.676;23.352;2024-03-17T17:12:18;19.15;;;9.52;;
56830;SDS011;42713;42.676;23.352;2024-03-17T17:14:46;14.82;;;9.25;;
56830;SDS011;42713;42.676;23.352;2024-03-17T17:17:15;17.58;;;10.45;;
56830;SDS011;42713;42.676;23.352;2024-03-17T17:19:54;17.17;;;9.85;;
56830;SDS011;42713;42.676;23.352;2024-03-17T17:31:55;19.02;;;10.43;;
56830;SDS011;42713;42.676;23.352;2024-03-17T17:35:20;16.45;;;9.27;;
56830;SDS011;42713;42.676;23.352;2024-03-17T17:38:16;15.65;;;9.48;;
56830;SDS011;42713;42.676;23.352;2024-03-17T17:51:00;18.35;;;10.18;;
56830;SDS011;42713;42.676;23.352;2024-03-17T17:53:42;18.05;;;10.80;;
56830;SDS011;42713;42.676;23.352;2024-03-17T17:59:13;21.55;;;12.43;;
56830;SDS011;42713;42.676;23.352;2024-03-17T18:02:05;20.15;;;11.48;;
56830;SDS011;42713;42.676;23.352;2024-03-17T18:04:54;20.80;;;11.90;;
56830;SDS011;42713;42.676;23.352;2024-03-17T18:19:14;20.48;;;11.50;;
56830;SDS011;42713;42.676;23.352;2024-03-17T19:17:22;15.77;;;9.50;;
56830;SDS011;42713;42.676;23.352;2024-03-17T20:06:30;19.00;;;11.40;;
56830;SDS011;42713;42.676;23.352;2024-03-17T20:09:56;19.58;;;11.95;;
56830;SDS011;42713;42.676;23.352;2024-03-17T20:13:13;19.48;;;11.68;;
56830;SDS011;42713;42.676;23.352;2024-03-17T20:32:15;20.33;;;11.50;;
56830;SDS011;42713;42.676;23.352;2024-03-17T20:34:44;16.90;;;9.85;;
56830;SDS011;42713;42.676;23.352;2024-03-17T20:37:13;21.05;;;10.45;;
56830;SDS011;42713;42.676;23.352;2024-03-17T20:39:38;19.27;;;9.40;;
56830;SDS011;42713;42.676;23.352;2024-03-17T20:42:04;17.00;;;9.52;;
56830;SDS011;42713;42.676;23.352;2024-03-17T20:44:32;15.60;;;9.07;;
56830;SDS011;42713;42.676;23.352;2024-03-17T20:46:58;16.52;;;9.88;;
56830;SDS011;42713;42.676;23.352;2024-03-17T20:49:24;16.30;;;9.70;;
56830;SDS011;42713;42.676;23.352;2024-03-17T20:51:49;17.10;;;10.27;;
56830;SDS011;42713;42.676;23.352;2024-03-17T20:54:33;18.38;;;10.18;;
56830;SDS011;42713;42.676;23.352;2024-03-17T20:57:03;16.70;;;10.60;;
56830;SDS011;42713;42.676;23.352;2024-03-17T20:59:29;22.23;;;10.15;;
56830;SDS011;42713;42.676;23.352;2024-03-17T21:02:13;17.77;;;10.15;;
56830;SDS011;42713;42.676;23.352;2024-03-17T21:04:38;14.68;;;9.35;;
56830;SDS011;42713;42.676;23.352;2024-03-17T21:07:03;14.65;;;9.45;;
56830;SDS011;42713;42.676;23.352;2024-03-17T21:09:30;16.17;;;9.70;;
56830;SDS011;42713;42.676;23.352;2024-03-17T21:11:56;14.40;;;8.77;;
56830;SDS011;42713;42.676;23.352;2024-03-17T21:14:23;15.05;;;8.75;;
56830;SDS011;42713;42.676;23.352;2024-03-17T21:16:52;18.90;;;9.48;;
56830;SDS011;42713;42.676;23.352;2024-03-17T21:19:18;16.33;;;8.60;;
56830;SDS011;42713;42.676;23.352;2024-03-17T21:21:45;17.92;;;8.88;;
56830;SDS011;42713;42.676;23.352;2024-03-17T21:24:10;15.13;;;8.85;;
56830;SDS011;42713;42.676;23.352;2024-03-17T21:26:39;17.35;;;9.55;;
56830;SDS011;42713;42.676;23.352;2024-03-17T21:29:04;15.10;;;9.77;;
56830;SDS011;42713;42.676;23.352;2024-03-17T21:31:32;17.95;;;10.18;;
56830;SDS011;42713;42.676;23.352;2024-03-17T21:33:58;15.85;;;9.73;;
56830;SDS011;42713;42.676;23.352;2024-03-17T21:36:24;20.20;;;9.95;;
56830;SDS011;42713;42.676;23.352;2024-03-17T21:38:49;17.52;;;9.90;;
56830;SDS011;42713;42.676;23.352;2024-03-17T21:41:35;16.00;;;10.27;;
56830;SDS011;42713;42.676;23.352;2024-03-17T21:44:01;18.00;;;10.35;;
56830;SDS011;42713;42.676;23.352;2024-03-17T21:46:29;17.30;;;10.10;;
56830;SDS011;42713;42.676;23.352;2024-03-17T21:48:55;16.75;;;9.65;;
56830;SDS011;42713;42.676;23.352;2024-03-17T21:51:20;19.15;;;10.63;;
56830;SDS011;42713;42.676;23.352;2024-03-17T21:53:46;16.33;;;10.20;;
56830;SDS011;42713;42.676;23.352;2024-03-17T21:56:14;17.13;;;10.05;;
56830;SDS011;42713;42.676;23.352;2024-03-17T21:58:40;20.20;;;10.15;;
56830;SDS011;42713;42.676;23.352;2024-03-17T22:01:05;17.83;;;9.48;;
56830;SDS011;42713;42.676;23.352;2024-03-17T22:03:31;16.23;;;10.38;;
56830;SDS011;42713;42.676;23.352;2024-03-17T22:05:57;16.30;;;9.32;;
56830;SDS011;42713;42.676;23.352;2024-03-17T22:08:28;17.27;;;9.93;;
56830;SDS011;42713;42.676;23.352;2024-03-17T22:10:54;17.63;;;9.45;;
56830;SDS011;42713;42.676;23.352;2024-03-17T22:13:27;22.90;;;12.07;;
56830;SDS011;42713;42.676;23.352;2024-03-17T22:16:00;16.98;;;9.75;;
56830;SDS011;42713;42.676;23.352;2024-03-17T22:18:27;18.90;;;10.25;;
56830;SDS011;42713;42.676;23.352;2024-03-17T22:23:29;16.02;;;8.65;;
56830;SDS011;42713;42.676;23.352;2024-03-17T22:25:55;17.55;;;8.80;;
56830;SDS011;42713;42.676;23.352;2024-03-17T22:28:29;15.80;;;9.27;;
56830;SDS011;42713;42.676;23.352;2024-03-17T22:31:01;18.17;;;11.40;;
56830;SDS011;42713;42.676;23.352;2024-03-17T22:33:31;20.20;;;11.38;;
56830;SDS011;42713;42.676;23.352;2024-03-17T22:36:01;21.90;;;11.57;;
56830;SDS011;42713;42.676;23.352;2024-03-17T22:38:35;23.13;;;13.88;;
56830;SDS011;42713;42.676;23.352;2024-03-17T22:41:05;20.20;;;12.18;;
56830;SDS011;42713;42.676;23.352;2024-03-17T22:43:32;22.53;;;12.63;;
56830;SDS011;42713;42.676;23.352;2024-03-17T22:46:00;23.05;;;13.20;;
56830;SDS011;42713;42.676;23.352;2024-03-17T22:48:30;17.50;;;10.23;;
56830;SDS011;42713;42.676;23.352;2024-03-17T22:50:59;23.30;;;12.52;;
56830;SDS011;42713;42.676;23.352;2024-03-17T22:53:25;17.52;;;10.48;;
56830;SDS011;42713;42.676;23.352;2024-03-17T22:55:54;18.65;;;9.10;;
56830;SDS011;42713;42.676;23.352;2024-03-17T22:58:39;17.40;;;8.93;;
56830;SDS011;42713;42.676;23.352;2024-03-17T23:01:11;13.35;;;8.07;;
56830;SDS011;42713;42.676;23.352;2024-03-17T23:03:40;17.60;;;9.00;;
56830;SDS011;42713;42.676;23.352;2024-03-17T23:06:06;14.55;;;7.88;;
56830;SDS011;42713;42.676;23.352;2024-03-17T23:08:34;15.27;;;7.63;;
56830;SDS011;42713;42.676;23.352;2024-03-17T23:11:07;12.20;;;6.47;;
56830;SDS011;42713;42.676;23.352;2024-03-17T23:13:35;11.98;;;6.30;;
56830;SDS011;42713;42.676;23.352;2024-03-17T23:16:01;11.07;;;6.35;;
56830;SDS011;42713;42.676;23.352;2024-03-17T23:18:27;18.10;;;6.70;;
56830;SDS011;42713;42.676;23.352;2024-03-17T23:20:54;16.10;;;8.57;;
56830;SDS011;42713;42.676;23.352;2024-03-17T23:23:20;16.50;;;9.23;;
56830;SDS011;42713;42.676;23.352;2024-03-17T23:25:45;17.08;;;10.50;;
56830;SDS011;42713;42.676;23.352;2024-03-17T23:28:11;19.85;;;9.75;;
56830;SDS011;42713;42.676;23.352;2024-03-17T23:30:38;17.40;;;10.00;;
56830;SDS011;42713;42.676;23.352;2024-03-17T23:33:06;18.48;;;9.65;;
56830;SDS011;42713;42.676;23.352;2024-03-17T23:35:32;16.70;;;9.35;;
56830;SDS011;42713;42.676;23.352;2024-03-17T23:38:01;17.48;;;9.52;;
56830;SDS011;42713;42.676;23.352;2024-03-17T23:40:27;18.75;;;9.25;;
56830;SDS011;42713;42.676;23.352;2024-03-17T23:42:53;19.50;;;9.57;;
56830;SDS011;42713;42.676;23.352;2024-03-17T23:45:20;15.15;;;8.90;;
56830;SDS011;42713;42.676;23.352;2024-03-17T23:47:47;16.25;;;8.13;;
56830;SDS011;42713;42.676;23.352;2024-03-17T23:50:13;14.90;;;8.00;;
56830;SDS011;42713;42.676;23.352;2024-03-17T23:52:40;16.50;;;8.63;;
56830;SDS011;42713;42.676;23.352;2024-03-17T23:55:10;15.68;;;8.02;;
56830;SDS011;42713;42.676;23.352;2024-03-17T23:57:37;16.70;;;8.55;;
